Time;durP1;ratioP1;P1;durP2;ratioP2;P2;SDS_P1;SDS_P2;PMS_P1;PMS_P2;Temp;Humidity;BMP_temperature;BMP_pressure;BME280_temperature;BME280_humidity;BME280_pressure;Samples;Min_cycle;Max_cycle;Signal;HPM_P1;HPM_P2
2023/04/04 00:01:11;;;;;;;21.92;11.13;;;;;;;16.24;83.72;98560.47;4940462;29;20075;-62
2023/04/04 00:03:41;;;;;;;18.83;11.63;;;;;;;16.26;83.54;98560.22;4945228;29;20043;-63
2023/04/04 00:06:11;;;;;;;21.17;12.18;;;;;;;16.31;83.20;98568.34;4945506;29;20051;-62
2023/04/04 00:08:41;;;;;;;20.60;12.27;;;;;;;16.26;83.26;98581.59;4945988;29;20075;-62
2023/04/04 00:11:10;;;;;;;21.75;12.95;;;;;;;16.28;83.10;98568.84;4943271;28;20550;-63
2023/04/04 00:13:40;;;;;;;20.15;12.88;;;;;;;16.16;82.78;98564.28;4945262;29;20047;-62
2023/04/04 00:16:10;;;;;;;22.60;13.02;;;;;;;16.14;83.07;98574.41;4928917;29;20070;-63
2023/04/04 00:18:39;;;;;;;17.20;11.27;;;;;;;16.24;83.38;98571.16;4941777;29;20043;-63
2023/04/04 00:21:09;;;;;;;23.52;13.18;;;;;;;16.24;83.37;98575.69;4945030;29;20050;-62
2023/04/04 00:23:39;;;;;;;18.70;11.73;;;;;;;16.22;82.98;98580.44;4944915;29;20047;-62
2023/04/04 00:26:08;;;;;;;17.95;10.10;;;;;;;16.22;83.49;98577.75;4944641;28;20134;-63
2023/04/04 00:28:39;;;;;;;16.52;9.55;;;;;;;16.18;82.93;98575.56;4943915;29;20391;-62
2023/04/04 00:31:09;;;;;;;16.70;9.85;;;;;;;16.12;83.27;98576.47;4942995;28;20109;-62
2023/04/04 00:33:39;;;;;;;14.57;8.32;;;;;;;16.01;83.57;98573.81;4942238;29;20443;-62
2023/04/04 00:36:08;;;;;;;11.65;7.03;;;;;;;16.06;83.46;98585.44;4945301;29;20042;-63
2023/04/04 00:38:38;;;;;;;10.70;7.32;;;;;;;16.15;84.25;98588.56;4942948;29;20047;-64
2023/04/04 00:41:08;;;;;;;12.70;5.80;;;;;;;16.05;83.37;98585.66;4920917;29;20374;-63
2023/04/04 00:43:39;;;;;;;8.65;5.53;;;;;;;16.03;83.76;98599.22;4942109;29;20159;-62
2023/04/04 00:46:14;;;;;;;7.18;4.53;;;;;;;16.10;83.50;98588.44;4945507;29;20142;-62
2023/04/04 00:48:44;;;;;;;13.60;5.13;;;;;;;16.06;83.22;98593.44;4942037;29;20707;-62
2023/04/04 00:51:13;;;;;;;9.02;5.38;;;;;;;16.13;83.17;98604.81;4927467;29;20043;-66
2023/04/04 00:53:45;;;;;;;8.85;5.00;;;;;;;16.17;83.29;98605.19;4931158;29;20135;-61
2023/04/04 00:56:15;;;;;;;11.10;5.17;;;;;;;16.13;83.62;98604.00;4958860;28;20043;-62
2023/04/04 00:58:50;;;;;;;8.65;5.10;;;;;;;16.17;84.21;98613.19;4936365;29;20370;-62
2023/04/04 01:01:21;;;;;;;9.75;4.65;;;;;;;16.11;83.77;98625.59;4925122;29;20047;-61
2023/04/04 01:03:50;;;;;;;6.05;4.60;;;;;;;16.01;82.92;98630.72;4944769;29;20082;-62
2023/04/04 01:06:20;;;;;;;7.50;4.63;;;;;;;16.01;82.68;98629.91;4931130;28;20054;-61
2023/04/04 01:08:51;;;;;;;6.65;4.22;;;;;;;16.11;83.21;98630.94;4913547;29;20043;-61
2023/04/04 01:11:21;;;;;;;5.95;4.45;;;;;;;16.15;82.93;98637.47;4943431;29;20079;-61
2023/04/04 01:13:51;;;;;;;7.63;4.82;;;;;;;16.11;82.38;98636.28;4928207;29;20048;-62
2023/04/04 01:16:23;;;;;;;6.53;4.55;;;;;;;16.17;82.95;98631.91;4927914;29;26199;-63
2023/04/04 01:18:54;;;;;;;8.55;4.90;;;;;;;16.26;83.26;98630.53;4941016;29;20054;-63
2023/04/04 01:21:24;;;;;;;10.18;4.97;;;;;;;16.31;82.66;98640.50;4927541;28;20049;-62
2023/04/04 01:24:02;;;;;;;7.75;4.93;;;;;;;16.36;83.03;98636.13;4944847;28;20051;-62
2023/04/04 01:26:50;;;;;;;8.20;4.60;;;;;;;16.38;82.74;98639.34;4928977;29;20052;-64
2023/04/04 01:29:20;;;;;;;6.75;5.05;;;;;;;16.41;82.43;98651.47;4948003;29;20831;-63
2023/04/04 01:31:59;;;;;;;8.07;4.97;;;;;;;16.51;82.12;98651.69;4948537;29;20121;-63
2023/04/04 01:34:43;;;;;;;9.63;5.78;;;;;;;16.66;81.95;98646.72;4949060;28;20051;-63
2023/04/04 01:37:54;;;;;;;10.15;5.53;;;;;;;16.74;82.63;98653.59;4948311;28;20106;-61
2023/04/04 01:40:28;;;;;;;6.38;4.93;;;;;;;16.73;82.22;98651.97;4936514;28;20050;-63
2023/04/04 01:42:57;;;;;;;10.73;5.07;;;;;;;16.82;82.29;98655.91;4958502;28;20139;-62
2023/04/04 01:45:29;;;;;;;6.43;4.43;;;;;;;16.81;81.14;98660.47;4928336;29;20431;-60
2023/04/04 01:48:02;;;;;;;6.72;4.70;;;;;;;16.94;81.05;98662.06;4947337;29;20047;-62
2023/04/04 01:50:31;;;;;;;7.00;4.90;;;;;;;17.20;79.93;98674.13;4945812;29;20742;-61
2023/04/04 01:53:02;;;;;;;7.60;4.28;;;;;;;17.21;78.33;98665.06;4931438;29;20387;-61
2023/04/04 01:55:31;;;;;;;8.25;4.22;;;;;;;17.22;78.09;98670.16;4932010;29;20126;-62
2023/04/04 01:58:01;;;;;;;8.50;3.80;;;;;;;17.21;77.36;98670.41;4928911;29;20071;-63
2023/04/04 02:00:31;;;;;;;9.52;4.45;;;;;;;17.40;76.95;98674.53;4945143;28;20079;-62
2023/04/04 02:03:01;;;;;;;7.35;4.22;;;;;;;17.62;76.87;98672.06;4948917;29;20051;-63
2023/04/04 02:05:31;;;;;;;9.20;3.70;;;;;;;18.09;75.56;98683.41;4948224;29;20061;-63
2023/04/04 02:08:00;;;;;;;10.65;3.97;;;;;;;18.23;72.95;98680.16;4928194;29;20111;-62
2023/04/04 02:10:38;;;;;;;7.95;4.20;;;;;;;18.50;70.48;98677.66;4925927;29;20055;-63
2023/04/04 02:13:08;;;;;;;10.05;3.67;;;;;;;19.19;69.99;98678.19;4943241;28;20054;-62
2023/04/04 02:15:38;;;;;;;6.03;3.45;;;;;;;19.91;66.19;98676.13;4962634;28;20102;-63
2023/04/04 02:18:08;;;;;;;5.10;2.90;;;;;;;20.21;66.58;98680.97;4930117;29;20138;-61
2023/04/04 02:20:37;;;;;;;9.40;3.70;;;;;;;20.44;63.94;98678.00;4949928;28;20057;-63
2023/04/04 02:23:07;;;;;;;7.53;3.58;;;;;;;20.34;63.21;98685.97;4922193;29;20059;-63
2023/04/04 02:25:36;;;;;;;5.18;2.72;;;;;;;20.48;62.76;98689.06;4937997;28;20421;-62
2023/04/04 02:28:05;;;;;;;9.70;3.45;;;;;;;21.09;61.30;98692.97;4931036;29;20115;-62
2023/04/04 02:30:35;;;;;;;6.75;2.72;;;;;;;21.01;62.20;98696.16;4948478;28;20051;-62
2023/04/04 02:33:04;;;;;;;7.63;3.05;;;;;;;20.98;61.06;98699.34;4947917;28;20050;-62
2023/04/04 02:35:34;;;;;;;5.82;2.50;;;;;;;21.92;59.17;98704.69;4930866;29;20043;-63
2023/04/04 02:38:03;;;;;;;5.30;2.83;;;;;;;22.88;56.74;98710.22;4946812;28;20071;-63
2023/04/04 02:40:41;;;;;;;6.13;3.00;;;;;;;22.77;59.25;98722.13;4947339;28;20058;-63
2023/04/04 02:43:10;;;;;;;6.63;2.47;;;;;;;22.47;58.42;98717.50;4930430;29;20059;-63
2023/04/04 02:45:41;;;;;;;6.57;2.22;;;;;;;22.50;57.13;98725.06;4946729;29;20098;-63
2023/04/04 02:48:30;;;;;;;5.55;2.80;;;;;;;21.95;57.55;98723.06;4930627;29;20043;-64
2023/04/04 02:51:01;;;;;;;5.85;2.88;;;;;;;21.16;58.73;98733.16;4920736;29;20147;-63
2023/04/04 02:53:33;;;;;;;5.63;2.80;;;;;;;20.96;60.05;98734.66;4944313;29;20046;-63
2023/04/04 02:56:14;;;;;;;5.75;2.65;;;;;;;21.23;61.68;98736.47;4925082;29;20437;-63
2023/04/04 02:58:44;;;;;;;8.50;2.83;;;;;;;21.54;62.94;98740.13;4911568;29;20043;-64
2023/04/04 03:01:14;;;;;;;9.80;3.75;;;;;;;21.18;61.27;98739.13;4939607;29;20047;-64
2023/04/04 03:03:45;;;;;;;10.02;4.18;;;;;;;21.24;63.30;98738.91;4940900;28;20047;-64
2023/04/04 03:06:15;;;;;;;8.98;4.28;;;;;;;21.14;62.75;98738.84;4940037;29;20062;-64
2023/04/04 03:08:48;;;;;;;;;;;;;;;21.22;63.31;98732.94;4944650;28;20491;-65
2023/04/04 03:11:20;;;;;;;11.52;5.78;;;;;;;21.31;64.29;98730.56;4943068;28;19933;-65
2023/04/04 03:13:53;;;;;;;9.00;5.03;;;;;;;21.27;62.24;98732.16;4929178;29;20055;-65
2023/04/04 03:16:32;;;;;;;14.63;5.10;;;;;;;21.48;61.36;98734.72;4923507;29;20054;-65
2023/04/04 03:19:02;;;;;;;9.25;5.40;;;;;;;21.71;61.57;98738.88;4922633;29;20047;-65
2023/04/04 03:21:32;;;;;;;13.38;5.30;;;;;;;21.95;61.20;98744.66;4943307;29;20054;-65
2023/04/04 03:24:01;;;;;;;10.68;5.93;;;;;;;21.96;60.30;98746.25;4943139;28;20043;-64
2023/04/04 03:26:32;;;;;;;12.40;7.18;;;;;;;22.05;59.78;98744.66;4933889;28;20071;-63
2023/04/04 03:29:03;;;;;;;15.75;9.02;;;;;;;22.01;61.22;98745.47;4928772;29;20475;-63
2023/04/04 03:31:33;;;;;;;23.40;10.20;;;;;;;22.28;62.17;98754.16;4929356;29;20054;-63
2023/04/04 03:34:03;;;;;;;22.52;14.98;;;;;;;22.21;61.75;98743.66;4926229;28;20476;-64
2023/04/04 03:36:33;;;;;;;32.20;19.70;;;;;;;22.05;59.04;98746.53;4948510;28;20622;-62
2023/04/04 03:39:02;;;;;;;33.83;21.17;;;;;;;22.17;62.55;98752.53;4961905;28;20043;-63
2023/04/04 03:41:31;;;;;;;38.22;25.80;;;;;;;22.22;59.91;98758.72;4954798;28;20058;-63
2023/04/04 03:44:04;;;;;;;37.28;23.00;;;;;;;22.17;63.00;98761.41;4925273;29;20058;-62
2023/04/04 03:46:33;;;;;;;32.10;22.58;;;;;;;22.25;62.02;98754.72;4942264;29;20051;-61
2023/04/04 03:49:03;;;;;;;37.80;21.65;;;;;;;22.46;60.88;98760.94;4946518;29;20047;-61
2023/04/04 03:51:33;;;;;;;40.92;26.27;;;;;;;22.15;58.26;98754.69;4945207;28;20047;-61
2023/04/04 03:54:03;;;;;;;41.78;27.52;;;;;;;22.39;60.01;98767.41;4947492;28;20649;-61
2023/04/04 03:56:34;;;;;;;49.65;31.23;;;;;;;22.13;58.44;98763.03;4946136;29;20055;-61
2023/04/04 03:59:05;;;;;;;47.20;33.47;;;;;;;22.22;59.67;98761.44;4929137;29;20088;-61
2023/04/04 04:01:36;;;;;;;57.28;37.10;;;;;;;21.98;59.75;98765.69;4929125;29;21382;-61
2023/04/04 04:04:05;;;;;;;52.40;31.88;;;;;;;22.46;61.52;98777.94;4925717;29;20118;-62
2023/04/04 04:06:36;;;;;;;48.92;30.40;;;;;;;22.55;58.54;98780.94;4930114;29;20055;-61
2023/04/04 04:09:05;;;;;;;37.10;25.65;;;;;;;22.76;59.70;98767.22;4949001;28;20133;-61
2023/04/04 04:11:35;;;;;;;51.13;34.55;;;;;;;22.75;59.84;98770.16;4946478;28;20051;-61
2023/04/04 04:14:05;;;;;;;55.88;34.88;;;;;;;22.89;60.07;98778.53;4934578;29;20051;-62
2023/04/04 04:16:40;;;;;;;61.65;39.30;;;;;;;22.92;59.26;98786.94;4928489;29;20075;-62
2023/04/04 04:19:13;;;;;;;62.90;37.10;;;;;;;23.21;60.35;98792.59;4929059;29;20043;-61
2023/04/04 04:21:43;;;;;;;60.90;38.08;;;;;;;23.24;60.20;98803.66;4925908;29;20047;-61
2023/04/04 04:24:12;;;;;;;58.80;39.55;;;;;;;23.20;58.40;98808.00;4941752;28;20047;-60
2023/04/04 04:26:42;;;;;;;58.17;35.97;;;;;;;23.24;59.79;98817.16;4942055;29;20745;-61
2023/04/04 04:29:15;;;;;;;53.38;35.22;;;;;;;23.39;59.30;98815.53;4928316;29;20051;-61
2023/04/04 04:31:45;;;;;;;58.33;32.58;;;;;;;23.55;57.58;98817.16;4949337;28;20054;-61
2023/04/04 04:34:15;;;;;;;55.47;29.95;;;;;;;23.80;58.82;98827.13;4926711;29;20134;-61
2023/04/04 04:36:46;;;;;;;39.70;25.77;;;;;;;24.11;58.09;98834.84;4942239;28;20075;-62
2023/04/04 04:39:26;;;;;;;34.55;21.73;;;;;;;24.10;55.67;98835.13;4927857;29;20054;-61
2023/04/04 04:42:22;;;;;;;33.78;21.92;;;;;;;24.46;56.60;98831.19;4937946;29;20055;-61
2023/04/04 04:44:56;;;;;;;28.63;17.85;;;;;;;24.78;55.63;98835.34;4927779;29;20051;-61
2023/04/04 04:47:26;;;;;;;22.80;16.63;;;;;;;25.30;53.92;98837.38;4927606;29;20126;-61
2023/04/04 04:49:56;;;;;;;22.33;15.13;;;;;;;24.60;52.49;98837.63;4943148;29;20106;-61
2023/04/04 04:52:38;;;;;;;24.58;14.48;;;;;;;25.22;54.33;98841.53;4927271;29;20047;-61
2023/04/04 04:55:08;;;;;;;21.75;11.93;;;;;;;25.75;54.58;98834.25;4941428;29;20048;-61
2023/04/04 04:57:45;;;;;;;15.38;8.90;;;;;;;25.83;52.47;98830.91;4928139;29;20051;-61
2023/04/04 05:00:22;;;;;;;12.60;7.32;;;;;;;25.79;50.03;98829.88;4912555;29;20059;-61
2023/04/04 05:02:55;;;;;;;10.88;5.70;;;;;;;25.99;50.37;98834.25;4931816;29;20051;-62
2023/04/04 05:05:35;;;;;;;7.45;5.03;;;;;;;26.59;48.50;98837.31;4933846;29;20051;-62
2023/04/04 05:08:08;;;;;;;10.20;4.93;;;;;;;26.73;51.14;98843.63;4946709;29;20063;-61
2023/04/04 05:10:44;;;;;;;7.72;4.82;;;;;;;26.61;48.81;98846.78;4932175;29;20066;-62
2023/04/04 05:13:14;;;;;;;8.63;4.53;;;;;;;26.12;47.73;98849.03;4945852;29;20043;-61
2023/04/04 05:15:46;;;;;;;8.05;4.40;;;;;;;27.16;48.55;98849.78;4931457;29;20118;-62
2023/04/04 05:18:17;;;;;;;8.82;4.93;;;;;;;27.22;48.52;98843.94;4948584;29;20050;-62
2023/04/04 05:20:52;;;;;;;7.85;3.90;;;;;;;27.79;45.13;98855.50;4931100;29;20144;-62
2023/04/04 05:23:26;;;;;;;9.73;5.15;;;;;;;27.32;45.63;98853.84;4943274;28;20071;-62
2023/04/04 05:25:56;;;;;;;8.90;5.78;;;;;;;27.76;49.52;98856.09;4928987;29;20507;-62
2023/04/04 05:28:32;;;;;;;15.63;6.20;;;;;;;28.13;48.94;98849.69;4929021;29;20051;-61
2023/04/04 05:31:04;;;;;;;13.85;6.03;;;;;;;27.70;44.70;98849.16;4924155;29;20145;-62
2023/04/04 05:33:35;;;;;;;12.20;6.35;;;;;;;27.41;47.71;98860.22;4916207;29;20071;-61
2023/04/04 05:36:13;;;;;;;7.97;5.50;;;;;;;27.66;49.61;98851.63;4927687;29;20055;-61
2023/04/04 05:38:51;;;;;;;7.80;4.95;;;;;;;28.21;46.32;98859.88;4939900;29;20055;-61
2023/04/04 05:41:24;;;;;;;10.65;4.90;;;;;;;28.32;47.12;98844.94;4927215;29;20127;-61
2023/04/04 05:44:00;;;;;;;7.80;4.45;;;;;;;28.62;43.23;98843.47;4945231;29;20085;-60
2023/04/04 05:46:30;;;;;;;9.50;5.00;;;;;;;28.91;45.08;98841.16;4916696;29;20047;-61
2023/04/04 05:48:59;;;;;;;12.75;4.63;;;;;;;28.59;42.07;98844.88;4927950;29;20054;-62
2023/04/04 05:51:29;;;;;;;14.85;4.95;;;;;;;28.37;42.82;98844.81;4925551;29;20523;-61
2023/04/04 05:54:08;;;;;;;19.23;4.65;;;;;;;28.30;43.82;98841.69;4946830;28;20043;-60
2023/04/04 05:56:39;;;;;;;17.30;5.18;;;;;;;28.57;43.29;98838.94;4920964;29;20484;-60
2023/04/04 05:59:16;;;;;;;12.65;4.63;;;;;;;28.75;42.33;98833.66;4943564;29;20135;-60
2023/04/04 06:02:00;;;;;;;13.95;4.88;;;;;;;28.61;41.31;98839.13;4928490;29;20047;-60
2023/04/04 06:04:32;;;;;;;11.23;5.00;;;;;;;28.80;42.48;98836.28;4942283;29;20078;-62
2023/04/04 06:07:04;;;;;;;16.73;6.30;;;;;;;29.15;43.23;98832.69;4941803;29;20052;-61
2023/04/04 06:09:35;;;;;;;17.95;5.18;;;;;;;28.97;41.67;98836.41;4946345;29;20736;-63
2023/04/04 06:12:04;;;;;;;16.33;6.18;;;;;;;28.74;44.54;98843.75;4943103;29;20055;-62
2023/04/04 06:14:37;;;;;;;20.08;6.10;;;;;;;28.66;41.79;98841.75;4932146;29;20053;-62
2023/04/04 06:17:08;;;;;;;17.10;6.65;;;;;;;28.62;41.11;98848.91;4925286;28;20642;-64
2023/04/04 06:19:38;;;;;;;10.13;6.70;;;;;;;28.70;42.96;98842.75;4929640;29;20058;-65
2023/04/04 06:22:07;;;;;;;15.63;9.30;;;;;;;28.74;41.12;98845.66;4946395;28;20070;-65
2023/04/04 06:24:39;;;;;;;17.92;10.10;;;;;;;28.60;44.61;98842.94;4943340;29;20044;-64
2023/04/04 06:27:12;;;;;;;18.65;9.63;;;;;;;28.57;43.22;98844.38;4926430;29;20543;-65
2023/04/04 06:29:41;;;;;;;19.73;10.35;;;;;;;28.54;43.46;98847.72;4930143;29;20116;-66
2023/04/04 06:32:15;;;;;;;20.45;10.88;;;;;;;28.74;41.94;98849.22;4928716;28;20049;-65
2023/04/04 06:34:44;;;;;;;25.20;13.93;;;;;;;28.67;41.79;98845.28;4947217;28;20574;-65
2023/04/04 06:37:17;;;;;;;22.90;14.23;;;;;;;28.63;41.50;98855.19;4944602;28;20051;-66
2023/04/04 06:39:57;;;;;;;25.23;13.82;;;;;;;28.25;41.30;98841.00;4946161;29;20289;-66
2023/04/04 06:42:28;;;;;;;22.55;13.32;;;;;;;28.40;45.49;98849.66;4928663;29;20043;-64
2023/04/04 06:45:02;;;;;;;18.42;11.90;;;;;;;28.50;42.27;98848.66;4923814;29;20042;-63
2023/04/04 06:47:32;;;;;;;19.02;11.02;;;;;;;28.17;41.47;98842.53;4938526;28;20058;-64
2023/04/04 06:50:01;;;;;;;24.30;11.90;;;;;;;28.22;43.15;98838.88;4925646;29;20130;-63
2023/04/04 06:52:31;;;;;;;20.17;11.50;;;;;;;28.15;46.03;98846.69;4925999;29;20048;-63
2023/04/04 06:55:03;;;;;;;21.65;12.80;;;;;;;28.11;45.77;98841.81;4915491;29;20420;-63
2023/04/04 06:57:32;;;;;;;20.77;11.35;;;;;;;28.24;43.72;98832.00;4946736;29;20058;-64
2023/04/04 07:00:02;;;;;;;22.42;9.20;;;;;;;28.17;41.90;98830.81;4945674;28;20062;-63
2023/04/04 07:02:31;;;;;;;23.15;9.85;;;;;;;28.27;43.06;98831.44;4927711;29;20051;-64
2023/04/04 07:05:02;;;;;;;16.98;9.88;;;;;;;28.32;45.19;98830.50;4912231;29;20063;-63
2023/04/04 07:07:32;;;;;;;25.77;9.20;;;;;;;28.30;43.97;98827.28;4928510;29;20134;-64
2023/04/04 07:10:02;;;;;;;21.50;8.88;;;;;;;28.16;44.19;98821.03;4939699;28;20050;-62
2023/04/04 07:12:32;;;;;;;18.15;8.48;;;;;;;28.40;43.35;98821.63;4947411;28;20055;-63
2023/04/04 07:15:02;;;;;;;18.33;8.18;;;;;;;28.13;43.17;98826.00;4949791;28;20550;-62
2023/04/04 07:17:31;;;;;;;15.30;7.60;;;;;;;28.24;43.57;98818.41;4937292;29;20058;-64
2023/04/04 07:20:01;;;;;;;22.27;8.73;;;;;;;28.22;41.96;98820.63;4922210;29;20150;-64
2023/04/04 07:22:32;;;;;;;16.23;8.45;;;;;;;28.23;41.35;98819.53;4947426;28;20058;-63
2023/04/04 07:25:01;;;;;;;15.23;8.23;;;;;;;28.32;41.19;98814.97;4947446;28;20039;-63
2023/04/04 07:27:30;;;;;;;18.48;10.48;;;;;;;28.47;42.90;98811.09;4947468;28;20348;-64
2023/04/04 07:30:00;;;;;;;21.75;9.45;;;;;;;28.32;42.32;98806.81;4921851;29;20122;-64
2023/04/04 07:32:30;;;;;;;19.45;9.70;;;;;;;28.42;44.77;98809.28;4946216;29;20726;-62
2023/04/04 07:35:00;;;;;;;21.80;9.38;;;;;;;28.55;43.41;98808.44;4947127;28;20070;-63
2023/04/04 07:37:29;;;;;;;17.48;8.52;;;;;;;28.32;42.67;98814.97;4947288;28;20816;-64
2023/04/04 07:39:59;;;;;;;33.83;9.30;;;;;;;28.38;43.14;98802.03;4946918;28;20114;-63
2023/04/04 07:42:29;;;;;;;23.05;9.40;;;;;;;28.48;43.17;98808.06;4949908;28;20074;-62
2023/04/04 07:44:59;;;;;;;16.73;6.30;;;;;;;28.55;42.20;98803.00;4947447;28;20054;-63
2023/04/04 07:47:28;;;;;;;22.23;6.07;;;;;;;28.52;40.18;98798.16;4946718;28;20059;-63
2023/04/04 07:49:58;;;;;;;13.40;6.22;;;;;;;28.44;40.29;98795.38;4946876;28;20046;-63
2023/04/04 07:52:28;;;;;;;15.48;7.43;;;;;;;28.44;41.60;98796.16;4946587;29;20043;-63
2023/04/04 07:54:59;;;;;;;23.70;8.30;;;;;;;28.42;42.57;98790.22;4946996;28;20059;-63
2023/04/04 07:57:28;;;;;;;15.40;6.80;;;;;;;28.42;42.10;98794.84;4947066;28;20054;-64
2023/04/04 07:59:58;;;;;;;13.50;7.25;;;;;;;28.32;42.25;98786.91;4920778;29;20048;-63
2023/04/04 08:02:27;;;;;;;16.00;7.20;;;;;;;28.16;43.33;98786.44;4927870;29;20114;-64
2023/04/04 08:04:57;;;;;;;17.05;8.45;;;;;;;28.07;42.80;98774.59;4939652;28;20077;-63
2023/04/04 08:07:26;;;;;;;21.42;8.95;;;;;;;28.21;42.92;98775.44;4944277;29;20818;-64
2023/04/04 08:09:58;;;;;;;14.57;8.05;;;;;;;28.22;43.60;98776.25;4945613;29;20093;-64
2023/04/04 08:12:27;;;;;;;19.50;8.75;;;;;;;28.25;42.00;98775.63;4945520;29;20062;-65
2023/04/04 08:14:56;;;;;;;17.15;9.45;;;;;;;28.25;41.71;98770.16;4913501;29;20138;-65
2023/04/04 08:17:26;;;;;;;20.92;11.05;;;;;;;28.23;42.21;98770.50;4945840;29;20047;-64
2023/04/04 08:19:56;;;;;;;20.40;11.20;;;;;;;28.22;42.49;98759.91;4923412;28;20055;-64
2023/04/04 08:22:25;;;;;;;17.40;9.82;;;;;;;28.08;42.53;98760.69;4929172;28;20603;-64
2023/04/04 08:24:55;;;;;;;18.40;9.15;;;;;;;28.11;42.16;98757.38;4947042;28;20531;-64
2023/04/04 08:27:24;;;;;;;16.48;9.05;;;;;;;28.29;41.94;98755.63;4929157;29;20690;-64
2023/04/04 08:29:54;;;;;;;18.25;7.93;;;;;;;28.32;40.99;98752.31;4929241;29;20039;-65
2023/04/04 08:32:24;;;;;;;17.75;9.60;;;;;;;28.28;42.99;98748.56;4945690;29;20055;-65
2023/04/04 08:34:53;;;;;;;21.88;9.68;;;;;;;28.16;43.24;98739.31;4946431;28;20047;-65
2023/04/04 08:37:22;;;;;;;15.52;8.10;;;;;;;28.04;42.40;98739.81;4945086;28;20643;-66
2023/04/04 08:39:51;;;;;;;21.67;8.10;;;;;;;28.11;41.05;98734.78;4930226;29;20051;-65
2023/04/04 08:42:22;;;;;;;13.30;7.32;;;;;;;28.18;43.11;98732.47;4945478;29;20131;-64
2023/04/04 08:44:54;;;;;;;11.55;6.50;;;;;;;27.83;42.82;98733.22;4946134;28;20660;-65
2023/04/04 08:47:24;;;;;;;12.15;6.15;;;;;;;27.79;42.75;98732.22;4945231;29;20078;-63
2023/04/04 08:49:55;;;;;;;15.45;6.90;;;;;;;27.85;42.86;98733.69;4945967;28;20075;-65
2023/04/04 08:52:28;;;;;;;15.68;6.10;;;;;;;27.94;42.73;98720.97;4928832;29;20055;-63
2023/04/04 08:54:58;;;;;;;14.38;7.43;;;;;;;28.01;41.72;98716.75;4946088;28;20058;-64
2023/04/04 08:57:28;;;;;;;20.85;8.18;;;;;;;27.95;41.58;98717.16;4946008;28;20047;-63
2023/04/04 08:59:57;;;;;;;17.40;7.65;;;;;;;27.82;41.66;98710.63;4945468;28;20114;-65
2023/04/04 09:02:58;;;;;;;18.02;7.65;;;;;;;27.89;42.69;98711.00;4929061;29;20051;-64
2023/04/04 09:05:28;;;;;;;16.77;6.72;;;;;;;27.74;42.25;98705.91;4928452;29;20126;-64
2023/04/04 09:07:59;;;;;;;14.50;6.13;;;;;;;27.76;41.26;98700.13;4945828;29;20101;-63
2023/04/04 09:10:28;;;;;;;12.73;6.30;;;;;;;27.69;41.38;98693.19;4950446;28;20547;-64
2023/04/04 09:12:58;;;;;;;10.30;6.55;;;;;;;27.67;42.15;98692.69;4945442;28;20109;-64
2023/04/04 09:15:56;;;;;;;17.88;7.35;;;;;;;27.50;41.25;98687.06;4942985;28;20044;-65
2023/04/04 09:18:26;;;;;;;15.77;7.97;;;;;;;27.49;40.26;98681.91;4940590;28;20063;-65
2023/04/04 09:20:55;;;;;;;13.23;8.85;;;;;;;27.43;42.50;98686.63;4941732;28;20146;-65
2023/04/04 09:23:25;;;;;;;14.07;7.63;;;;;;;27.49;41.34;98671.03;4943153;28;20061;-65
2023/04/04 09:25:55;;;;;;;13.05;6.15;;;;;;;27.65;42.58;98677.78;4939952;28;20126;-63
2023/04/04 09:28:28;;;;;;;13.80;6.20;;;;;;;27.68;40.57;98666.28;4944764;28;20039;-65
2023/04/04 09:31:04;;;;;;;13.57;6.60;;;;;;;27.70;40.99;98667.56;4943775;28;20079;-66
2023/04/04 09:33:38;;;;;;;16.67;5.07;;;;;;;27.56;39.45;98666.81;4942758;29;20054;-63
2023/04/04 09:36:11;;;;;;;15.52;6.05;;;;;;;27.44;42.55;98658.31;4941939;29;20079;-62
2023/04/04 09:38:47;;;;;;;13.77;5.53;;;;;;;27.38;41.81;98666.88;4601833;29;10000008;-66
2023/04/04 09:41:19;;;;;;;11.38;5.97;;;;;;;27.30;40.52;98657.53;4940845;29;20055;-63
2023/04/04 09:43:50;;;;;;;13.43;5.35;;;;;;;27.27;39.37;98656.19;4936498;29;20047;-64
2023/04/04 09:46:20;;;;;;;10.57;5.18;;;;;;;27.26;39.25;98648.38;4940686;28;20063;-62
2023/04/04 09:48:50;;;;;;;13.48;4.97;;;;;;;27.30;39.18;98646.66;4926880;29;20371;-66
2023/04/04 09:51:19;;;;;;;12.90;4.40;;;;;;;27.34;40.38;98641.41;4945338;29;20051;-67
2023/04/04 09:53:50;;;;;;;8.07;4.50;;;;;;;27.36;41.85;98645.41;4924477;29;20065;-65
2023/04/04 09:56:21;;;;;;;7.40;3.67;;;;;;;27.38;40.65;98635.06;4946027;28;20058;-66
2023/04/04 09:58:50;;;;;;;12.13;4.20;;;;;;;27.35;39.37;98635.63;4603990;29;10000347;-64
2023/04/04 10:01:33;;;;;;;12.30;3.35;;;;;;;27.25;38.40;98627.69;4946299;28;20689;-65
2023/04/04 10:04:04;;;;;;;11.13;3.97;;;;;;;27.29;40.06;98630.63;4945224;28;20048;-67
2023/04/04 10:06:36;;;;;;;9.63;3.53;;;;;;;27.25;39.61;98628.50;4946683;29;20057;-66
2023/04/04 10:09:07;;;;;;;8.95;3.20;;;;;;;27.25;38.60;98633.94;4948677;28;20074;-64
2023/04/04 10:11:37;;;;;;;10.60;4.20;;;;;;;27.24;39.03;98628.81;4946341;29;20047;-65
2023/04/04 10:14:08;;;;;;;10.15;3.80;;;;;;;27.17;40.11;98631.13;4947592;29;20051;-66
2023/04/04 10:16:44;;;;;;;9.57;3.80;;;;;;;27.08;39.54;98622.88;4947714;29;20062;-64
2023/04/04 10:19:17;;;;;;;7.57;3.70;;;;;;;27.09;40.35;98616.31;4947820;29;20055;-64
2023/04/04 10:21:48;;;;;;;10.23;4.35;;;;;;;27.08;39.42;98616.63;4947842;29;20667;-68
2023/04/04 10:24:17;;;;;;;14.85;3.78;;;;;;;26.97;38.21;98605.13;4945631;29;20134;-66
2023/04/04 10:26:47;;;;;;;8.30;3.55;;;;;;;27.00;38.70;98611.88;4946108;29;20047;-69
2023/04/04 10:29:17;;;;;;;12.68;3.90;;;;;;;27.08;38.85;98608.47;4944854;29;20055;-66
2023/04/04 10:31:52;;;;;;;8.93;3.97;;;;;;;27.08;38.26;98605.75;4947831;29;20117;-66
2023/04/04 10:34:46;;;;;;;11.98;3.50;;;;;;;27.03;40.08;98605.84;4945409;28;20078;-65
2023/04/04 10:37:25;;;;;;;10.43;3.50;;;;;;;27.07;40.22;98601.41;4941236;28;20047;-67
2023/04/04 10:40:18;;;;;;;13.57;3.83;;;;;;;27.09;40.78;98596.47;4945473;29;20546;-66
2023/04/04 10:42:50;;;;;;;8.10;3.53;;;;;;;27.04;39.27;98591.16;4946996;29;20054;-68
2023/04/04 10:45:20;;;;;;;9.17;3.60;;;;;;;27.01;40.58;98594.47;4945098;29;20051;-65
2023/04/04 10:47:50;;;;;;;10.02;3.10;;;;;;;26.90;40.62;98595.78;4947907;28;20062;-66
2023/04/04 10:50:20;;;;;;;6.82;2.90;;;;;;;26.85;38.18;98590.41;4946828;29;20044;-66
2023/04/04 10:52:52;;;;;;;10.30;3.92;;;;;;;26.87;39.14;98580.84;4947799;29;20446;-66
2023/04/04 10:55:23;;;;;;;12.05;3.53;;;;;;;26.86;40.35;98584.72;4947716;28;20051;-65
2023/04/04 10:57:54;;;;;;;14.43;3.40;;;;;;;26.77;39.27;98589.19;4947761;28;20143;-67
2023/04/04 11:00:24;;;;;;;11.80;3.53;;;;;;;26.73;40.76;98582.75;4946026;28;20152;-68
2023/04/04 11:02:58;;;;;;;16.48;4.20;;;;;;;26.72;39.12;98583.84;4940400;29;20090;-66
2023/04/04 11:05:46;;;;;;;8.70;3.50;;;;;;;26.73;40.97;98578.09;4934964;29;20051;-69
2023/04/04 11:08:19;;;;;;;7.78;2.47;;;;;;;26.64;40.88;98579.91;4945758;29;20043;-69
2023/04/04 11:10:51;;;;;;;10.13;3.35;;;;;;;26.60;41.92;98567.25;4949602;28;20057;-70
2023/04/04 11:13:38;;;;;;;7.95;2.72;;;;;;;26.50;41.72;98576.38;4940210;29;20051;-69
2023/04/04 11:16:15;;;;;;;8.07;2.60;;;;;;;26.50;40.58;98572.84;4933534;29;20723;-66
2023/04/04 11:18:48;;;;;;;10.45;2.60;;;;;;;26.48;40.21;98573.16;4947059;29;20676;-67
2023/04/04 11:21:22;;;;;;;12.10;2.78;;;;;;;26.48;41.31;98572.34;4948819;28;20050;-67
2023/04/04 11:23:52;;;;;;;13.88;3.10;;;;;;;26.41;40.93;98572.75;4944270;29;20501;-64
2023/04/04 11:26:27;;;;;;;9.60;2.80;;;;;;;26.31;41.10;98571.00;4942467;29;20089;-63
2023/04/04 11:29:01;;;;;;;11.40;4.53;;;;;;;26.30;41.50;98563.13;4945516;29;20047;-68
2023/04/04 11:31:39;;;;;;;9.23;2.80;;;;;;;26.22;42.13;98569.25;4937870;29;20047;-62
2023/04/04 11:34:11;;;;;;;9.95;2.95;;;;;;;26.20;41.97;98557.88;4945452;29;20043;-66
2023/04/04 11:36:41;;;;;;;18.27;2.93;;;;;;;26.22;42.43;98561.13;4946313;29;20055;-67
2023/04/04 11:39:29;;;;;;;5.00;2.53;;;;;;;26.21;41.51;98548.63;4944526;29;20084;-68
2023/04/04 11:42:12;;;;;;;11.20;2.95;;;;;;;26.19;41.63;98565.22;4942440;29;20061;-69
2023/04/04 11:45:02;;;;;;;6.57;2.80;;;;;;;26.17;41.35;98563.88;4944819;28;20051;-69
2023/04/04 11:47:32;;;;;;;10.15;3.47;;;;;;;26.11;42.18;98563.16;4927169;29;20055;-69
2023/04/04 11:50:07;;;;;;;11.70;2.97;;;;;;;26.08;41.74;98568.38;4936610;29;20052;-66